Terminal Aerodrome Forecast
Issued by NWS

Home | Current Version | Previous Version | Text Only | Print | Product List | Glossary On
Versions: 1 2 3 4 5 6 7 8 9 10 11 12 13 14 15 16 17 18 19 20
901
FTUS41 KPBZ 040545
TAFLBE
TAF
KLBE 040545Z 0406/0506 VRB03KT P6SM SCT025 OVC035
     FM041500 14003KT P6SM OVC090
     FM050400 14004KT 6SM -SHRA OVC050=

USA.gov is the U.S. government's official web portal to all federal, state and local government web resources and services.